.
WxDataArchive / Data Records for 2007-08-15
2007-08-14 August 2007 2007-08-16

Data Records for Wednesday, 15 August 2007

Time	Temp	Chill	HIndex	Humid	Dewpt	 Wind 	HiWind	WindDir	Rain 	Barom 
-----	----	-----	------	-----	-----	------	------	-------	-----	----- 
00:00	73.0	73.0	73.0	79	66.1	0	0	---	0.00	29.855 
00:05	72.8	72.8	72.8	79	65.9	0	0	---	0.00	29.854 
00:10	72.8	72.8	72.8	79	65.9	0	0	---	0.00	29.855 
00:15	72.7	72.7	72.7	80	66.2	0	0	---	0.00	29.854 
00:20	72.5	72.5	72.5	80	66.0	0	0	---	0.00	29.854 
00:25	72.5	72.5	72.5	80	66.0	0	0	---	0.00	29.854 
00:30	72.5	72.5	72.5	80	66.0	0	0	---	0.00	29.852 
00:35	72.7	72.7	72.7	80	66.2	0	1	270	0.00	29.853 
00:40	73.0	73.0	73.0	78	65.7	0	1	270	0.00	29.854 
00:45	73.2	73.2	73.2	78	65.9	0	1	270	0.00	29.846 
00:50	73.2	73.2	73.2	77	65.5	0	1	270	0.00	29.844 
00:55	73.2	73.2	73.2	77	65.5	0	1	270	0.00	29.844 
01:00	73.2	73.2	73.2	77	65.5	0	1	270	0.00	29.843 
01:05	73.0	73.0	73.0	77	65.3	0	1	270	0.00	29.841 
01:10	72.8	72.8	72.8	77	65.2	0	1	270	0.00	29.840 
01:15	72.7	72.7	72.7	78	65.4	0	0	---	0.00	29.841 
01:20	72.3	72.3	72.3	79	65.4	0	0	---	0.00	29.840 
01:25	72.1	72.1	72.1	79	65.2	0	0	---	0.00	29.838 
01:30	71.8	71.8	71.8	80	65.3	0	0	---	0.00	29.839 
01:35	71.6	71.6	71.6	81	65.4	0	0	---	0.00	29.840 
01:40	71.3	71.3	71.3	82	65.5	0	0	---	0.00	29.842 
01:45	70.9	70.9	70.9	82	65.1	0	0	---	0.00	29.843 
01:50	70.9	70.9	70.9	83	65.5	0	0	---	0.00	29.842 
01:55	70.9	70.9	70.9	83	65.5	0	0	---	0.00	29.841 
02:00	71.1	71.1	71.1	83	65.7	0	0	---	0.00	29.841 
02:05	71.1	71.1	71.1	83	65.7	0	0	---	0.00	29.837 
02:10	71.3	71.3	71.3	82	65.5	0	0	---	0.00	29.837 
02:15	71.5	71.5	71.5	82	65.7	0	0	---	0.00	29.838 
02:20	71.8	71.8	71.8	82	66.0	0	0	---	0.00	29.840 
02:25	71.8	71.8	71.8	81	65.6	0	0	---	0.00	29.841 
02:30	72.0	72.0	72.0	81	65.8	0	0	---	0.00	29.842 
02:35	72.0	72.0	72.0	81	65.8	0	0	---	0.00	29.841 
02:40	72.1	72.1	72.1	81	65.9	0	0	---	0.00	29.842 
02:45	72.1	72.1	72.1	81	65.9	0	0	---	0.00	29.843 
02:50	72.1	72.1	72.1	81	65.9	0	0	---	0.00	29.845 
02:55	72.1	72.1	72.1	80	65.6	0	0	---	0.00	29.843 
03:00	72.1	72.1	72.1	80	65.6	0	0	---	0.00	29.846 
03:05	72.1	72.1	72.1	80	65.6	0	0	---	0.00	29.844 
03:10	72.1	72.1	72.1	80	65.6	0	0	---	0.00	29.843 
03:15	72.0	72.0	72.0	80	65.5	0	0	---	0.00	29.847 
03:20	71.8	71.8	71.8	81	65.6	0	0	---	0.00	29.847 
03:25	71.6	71.6	71.6	81	65.4	0	0	---	0.00	29.841 
03:30	71.3	71.3	71.3	81	65.2	0	0	---	0.00	29.840 
03:35	71.1	71.1	71.1	82	65.3	0	0	---	0.00	29.840 
03:40	70.9	70.9	70.9	83	65.5	0	0	---	0.00	29.841 
03:45	70.6	70.6	70.6	84	65.5	0	0	---	0.00	29.844 
03:50	70.3	70.3	70.3	84	65.2	0	0	---	0.00	29.847 
03:55	70.1	70.1	70.1	85	65.4	0	0	---	0.00	29.848 
04:00	69.8	69.8	69.8	85	65.1	0	0	---	0.00	29.849 
04:05	69.6	69.6	69.6	86	65.2	0	0	---	0.00	29.853 
04:10	69.3	69.3	69.3	86	64.9	0	0	---	0.00	29.855 
04:15	69.1	69.1	69.1	87	65.1	0	0	---	0.00	29.854 
04:20	69.1	69.1	69.1	88	65.4	0	0	---	0.00	29.853 
04:25	68.9	68.9	68.9	88	65.2	0	0	---	0.00	29.853 
04:30	68.8	68.8	68.8	88	65.1	0	0	---	0.00	29.852 
04:35	68.6	68.6	68.6	88	64.9	0	0	---	0.00	29.853 
04:40	68.4	68.4	68.4	89	65.0	0	0	---	0.00	29.853 
04:45	68.3	68.3	68.3	89	64.9	0	0	---	0.00	29.849 
04:50	68.1	68.1	68.1	90	65.0	0	0	---	0.00	29.848 
04:55	68.1	68.1	68.1	90	65.0	0	0	---	0.00	29.849 
05:00	67.9	67.9	67.9	91	65.2	0	0	---	0.00	29.850 
05:05	67.8	67.8	67.8	91	65.1	0	0	---	0.00	29.855 
05:10	67.6	67.6	67.6	91	64.9	0	0	---	0.00	29.855 
05:15	67.6	67.6	67.6	91	64.9	0	0	---	0.00	29.854 
05:20	67.4	67.4	67.4	92	65.0	0	0	---	0.00	29.855 
05:25	67.3	67.3	67.3	92	64.9	0	0	---	0.00	29.855 
05:30	67.3	67.3	67.3	92	64.9	0	0	---	0.00	29.857 
05:35	67.1	67.1	67.1	92	64.7	0	0	---	0.00	29.858 
05:40	67.1	67.1	67.1	92	64.7	0	0	---	0.00	29.858 
05:45	66.9	66.9	66.9	93	64.8	0	0	---	0.00	29.858 
05:50	66.9	66.9	66.9	93	64.8	0	0	---	0.00	29.859 
05:55	66.8	66.8	66.8	93	64.7	0	0	---	0.00	29.860 
06:00	66.8	66.8	66.8	94	65.0	0	0	---	0.00	29.861 
06:05	66.6	66.6	66.6	94	64.8	0	0	---	0.00	29.861 
06:10	66.6	66.6	66.6	94	64.8	0	0	---	0.00	29.865 
06:15	66.6	66.6	66.6	94	64.8	0	0	---	0.00	29.869 
06:20	66.6	66.6	66.6	94	64.8	0	0	---	0.00	29.861 
06:25	66.8	66.8	66.8	95	65.3	0	0	---	0.00	29.861 
06:30	66.8	66.8	66.8	95	65.3	0	0	---	0.00	29.863 
06:35	66.9	66.9	66.9	95	65.4	0	0	---	0.00	29.861 
06:40	67.1	67.1	67.1	95	65.6	0	0	---	0.00	29.862 
06:45	67.4	67.4	67.4	95	65.9	0	0	---	0.00	29.861 
06:50	67.6	67.6	67.6	95	66.1	0	0	---	0.00	29.863 
06:55	67.9	67.9	67.9	95	66.4	0	0	---	0.00	29.867 
07:00	68.1	68.1	68.1	95	66.6	0	0	---	0.00	29.873 
07:05	68.4	68.4	68.4	94	66.6	0	0	---	0.00	29.873 
07:10	68.9	68.9	68.9	93	66.8	0	0	---	0.00	29.871 
07:15	69.4	69.4	69.4	92	67.0	0	0	---	0.00	29.875 
07:20	70.3	70.3	70.3	90	67.2	0	0	---	0.00	29.874 
07:25	71.1	71.1	71.1	88	67.4	0	1	270	0.00	29.873 
07:30	71.8	71.8	71.8	85	67.0	0	0	---	0.00	29.873 
07:35	72.3	72.3	72.3	85	67.5	0	0	---	0.00	29.874 
07:40	72.7	72.7	72.7	83	67.2	0	0	---	0.00	29.879 
07:45	73.0	73.0	73.0	81	66.8	0	1	270	0.00	29.884 
07:50	73.7	73.7	73.7	78	66.4	0	1	270	0.00	29.879 
07:55	74.4	74.4	74.4	78	67.1	0	1	270	0.00	29.880 
08:00	75.3	75.3	76.3	77	67.6	0	1	270	0.00	29.877 
08:05	75.6	75.6	76.8	76	67.5	1	2	270	0.00	29.877 
08:10	75.8	75.8	77.1	75	67.3	1	3	270	0.00	29.875 
08:15	75.8	75.8	77.0	76	67.7	1	2	270	0.00	29.875 
08:20	75.8	75.8	77.1	75	67.3	1	2	270	0.00	29.879 
08:25	75.8	75.8	77.0	76	67.7	1	2	248	0.00	29.882 
08:30	75.8	75.8	77.0	76	67.7	1	2	248	0.00	29.885 
08:35	75.8	75.8	77.0	76	67.7	0	1	248	0.00	29.886 
08:40	76.0	76.0	77.3	76	67.9	1	2	248	0.00	29.885 
08:45	76.1	76.1	77.4	76	68.0	2	4	90	0.00	29.886 
08:50	76.1	76.1	77.4	77	68.3	1	3	90	0.00	29.886 
08:55	76.0	76.0	77.2	77	68.3	2	4	68	0.00	29.889 
09:00	75.8	75.8	76.9	78	68.4	1	4	68	0.00	29.888 
09:05	76.1	76.1	77.3	78	68.7	2	5	90	0.00	29.887 
09:10	76.7	76.7	78.2	78	69.3	1	3	112	0.00	29.887 
09:15	77.4	77.4	79.3	76	69.2	2	6	112	0.00	29.887 
09:20	77.4	77.4	79.3	75	68.8	2	5	68	0.00	29.888 
09:25	77.0	77.0	78.7	77	69.2	2	4	90	0.00	29.889 
09:30	76.8	76.8	78.4	77	69.0	2	6	90	0.00	29.889 
09:35	76.7	76.7	78.2	77	68.9	2	5	90	0.00	29.891 
09:40	76.5	76.5	77.9	78	69.1	2	6	90	0.00	29.892 
09:45	76.1	76.1	77.3	78	68.7	1	4	90	0.00	29.891 
09:50	76.0	76.0	77.1	79	69.0	2	5	90	0.00	29.887 
09:55	76.0	76.0	77.0	80	69.4	1	6	68	0.00	29.888 
10:00	76.1	76.1	77.2	79	69.1	0	2	68	0.00	29.900 
10:05	76.5	76.5	77.9	78	69.1	1	5	90	0.00	29.904 
10:10	76.7	76.7	78.2	77	68.9	2	4	90	0.00	29.903 
10:15	76.8	76.8	78.3	79	69.8	1	3	90	0.00	29.904 
10:20	77.0	77.0	78.7	77	69.2	0	2	90	0.00	29.904 
10:25	77.4	77.4	79.3	77	69.6	0	2	90	0.00	29.904 
10:30	77.4	77.4	79.3	77	69.6	0	2	90	0.00	29.904 
10:35	77.4	77.4	79.3	77	69.6	1	3	90	0.00	29.905 
10:40	77.6	77.6	79.6	78	70.2	1	3	90	0.00	29.905 
10:45	77.6	77.6	79.6	77	69.8	1	3	90	0.00	29.904 
10:50	77.7	77.7	79.7	76	69.5	1	2	90	0.00	29.903 
10:55	77.7	77.7	79.7	76	69.5	1	4	112	0.00	29.902 
11:00	77.7	77.7	79.7	77	69.9	0	3	90	0.00	29.899 
11:05	77.7	77.7	79.7	76	69.5	1	3	90	0.00	29.896 
11:10	77.6	77.6	79.6	77	69.8	0	2	90	0.00	29.898 
11:15	77.6	77.6	79.6	77	69.8	1	2	158	0.00	29.901 
11:20	77.4	77.4	79.3	78	70.0	0	4	90	0.00	29.902 
11:25	77.2	77.2	78.9	78	69.8	0	2	90	0.00	29.903 
11:30	77.0	77.0	78.6	78	69.6	0	2	90	0.00	29.904 
11:35	77.0	77.0	78.6	79	70.0	1	3	90	0.00	29.903 
11:40	76.8	76.8	78.3	79	69.8	0	2	90	0.00	29.904 
11:45	77.0	77.0	78.6	80	70.3	0	1	90	0.00	29.903 
11:50	77.0	77.0	78.6	79	70.0	0	2	90	0.00	29.900 
11:55	77.2	77.2	78.9	79	70.2	0	2	90	0.00	29.900 
12:00	77.2	77.2	78.9	79	70.2	0	2	90	0.00	29.901 
12:05	77.4	77.4	79.3	79	70.4	1	3	90	0.00	29.901 
12:10	77.4	77.4	79.3	79	70.4	0	2	90	0.00	29.902 
12:15	77.6	77.6	79.6	78	70.2	0	2	90	0.00	29.902 
12:20	77.6	77.6	79.6	79	70.6	0	1	90	0.00	29.904 
12:25	77.6	77.6	79.6	79	70.6	0	1	90	0.00	29.904 
12:30	77.4	77.4	79.3	79	70.4	0	1	90	0.00	29.903 
12:35	77.4	77.4	79.3	79	70.4	0	2	90	0.00	29.899 
12:40	77.6	77.6	79.6	80	70.9	1	3	90	0.00	29.889 
12:45	77.7	77.7	79.8	79	70.7	1	5	90	0.00	29.892 
12:50	78.1	78.1	80.4	77	70.3	0	3	90	0.00	29.898 
12:55	78.8	78.8	81.7	78	71.3	0	2	90	0.00	29.898 
13:00	79.0	79.0	81.8	75	70.4	1	4	90	0.00	29.892 
13:05	79.2	79.2	82.1	75	70.6	1	3	90	0.00	29.890 
13:10	79.6	79.6	82.8	75	71.0	1	3	90	0.00	29.889 
13:15	79.9	79.9	83.1	73	70.4	1	2	90	0.00	29.895 
13:20	80.1	80.1	83.5	73	70.6	1	3	90	0.00	29.894 
13:25	80.1	80.1	83.5	73	70.6	0	1	90	0.00	29.895 
13:30	80.1	80.1	83.5	73	70.6	0	1	90	0.00	29.897 
13:35	80.1	80.1	83.5	73	70.6	1	2	90	0.00	29.895 
13:40	80.3	80.3	84.1	75	71.6	0	1	90	0.00	29.899 
13:45	80.5	80.5	84.4	74	71.4	0	2	90	0.00	29.896 
13:50	80.5	80.5	84.5	75	71.8	1	2	90	0.00	29.899 
13:55	80.7	80.7	84.6	73	71.2	1	3	90	0.00	29.898 
14:00	80.9	80.9	85.0	73	71.4	1	3	90	0.00	29.901 
14:05	81.1	81.1	85.0	71	70.8	0	1	90	0.00	29.900 
14:10	81.4	81.4	85.7	72	71.5	0	2	90	0.00	29.897 
14:15	81.4	81.4	85.5	71	71.1	1	3	90	0.00	29.895 
14:20	81.2	81.2	85.5	73	71.7	2	4	90	0.00	29.888 
14:25	81.1	81.1	85.5	74	72.0	1	4	90	0.00	29.887 
14:30	81.4	81.4	85.9	73	71.9	1	4	90	0.00	29.887 
14:35	81.6	81.6	86.3	73	72.1	2	4	90	0.00	29.883 
14:40	81.6	81.6	85.9	71	71.3	1	3	90	0.00	29.884 
14:45	81.6	81.6	86.1	72	71.7	1	3	90	0.00	29.881 
14:50	81.4	81.4	85.5	71	71.1	1	4	112	0.00	29.874 
14:55	81.2	81.2	85.3	72	71.3	2	5	112	0.00	29.869 
15:00	80.9	80.9	85.0	73	71.4	2	5	90	0.00	29.860 
15:05	80.7	80.7	84.6	73	71.2	2	6	68	0.00	29.868 
15:10	80.7	80.7	84.7	74	71.6	2	4	68	0.00	29.855 
15:15	80.7	80.7	84.6	73	71.2	2	5	90	0.00	29.842 
15:20	80.7	80.7	84.6	73	71.2	3	5	90	0.00	29.838 
15:25	80.9	80.9	85.0	73	71.4	3	7	68	0.00	29.834 
15:30	81.2	81.2	85.5	73	71.7	2	4	90	0.00	29.825 
15:35	81.2	81.2	85.3	72	71.3	3	6	112	0.00	29.827 
15:40	81.2	81.2	85.2	71	70.9	2	5	112	0.00	29.837 
15:45	81.1	81.1	85.2	72	71.2	2	4	90	0.00	29.832 
15:50	81.1	81.1	85.2	72	71.2	2	7	90	0.00	29.826 
15:55	81.1	81.1	85.0	71	70.8	2	4	90	0.00	29.824 
16:00	80.9	80.9	85.0	73	71.4	2	6	90	0.00	29.822 
16:05	80.7	80.7	84.6	73	71.2	3	6	90	0.00	29.823 
16:10	80.9	80.9	84.8	72	71.0	2	6	90	0.00	29.825 
16:15	81.1	81.1	85.3	73	71.6	2	5	112	0.00	29.827 
16:20	81.4	81.4	85.9	73	71.9	2	5	112	0.00	29.842 
16:25	81.2	81.2	85.3	72	71.3	2	5	112	0.00	29.842 
16:30	81.2	81.2	85.3	72	71.3	2	4	112	0.00	29.842 
16:35	81.1	81.1	85.2	72	71.2	2	5	90	0.00	29.832 
16:40	81.1	81.1	85.3	73	71.6	1	4	112	0.00	29.829 
16:45	81.1	81.1	85.2	72	71.2	1	4	135	0.00	29.833 
16:50	81.2	81.2	85.5	73	71.7	1	4	68	0.00	29.837 
16:55	81.2	81.2	85.3	72	71.3	1	2	112	0.00	29.842 
17:00	81.4	81.4	85.7	72	71.5	1	3	112	0.00	29.842 
17:05	81.6	81.6	85.9	71	71.3	1	3	112	0.00	29.844 
17:10	81.4	81.4	85.7	72	71.5	1	2	112	0.00	29.848 
17:15	81.6	81.6	86.1	72	71.7	1	3	112	0.00	29.845 
17:20	81.6	81.6	86.1	72	71.7	1	4	112	0.00	29.843 
17:25	81.6	81.6	86.3	73	72.1	2	5	90	0.00	29.841 
17:30	81.6	81.6	86.3	73	72.1	1	4	90	0.00	29.839 
17:35	81.6	81.6	86.3	73	72.1	2	5	90	0.00	29.842 
17:40	81.4	81.4	85.9	73	71.9	1	4	90	0.00	29.843 
17:45	81.2	81.2	85.3	72	71.3	1	4	112	0.00	29.843 
17:50	81.1	81.1	85.3	73	71.6	2	5	90	0.00	29.842 
17:55	80.7	80.7	84.6	73	71.2	2	4	90	0.00	29.841 
18:00	80.7	80.7	84.6	73	71.2	1	3	90	0.00	29.840 
18:05	80.5	80.5	84.2	73	71.0	1	4	90	0.00	29.842 
18:10	80.5	80.5	84.2	73	71.0	2	4	90	0.00	29.845 
18:15	80.3	80.3	84.0	74	71.2	1	2	90	0.00	29.848 
18:20	80.3	80.3	84.0	74	71.2	1	4	90	0.00	29.847 
18:25	80.3	80.3	84.0	74	71.2	1	2	112	0.00	29.847 
18:30	80.3	80.3	84.1	75	71.6	1	3	112	0.00	29.847 
18:35	80.3	80.3	84.1	75	71.6	1	3	90	0.00	29.848 
18:40	80.1	80.1	83.8	75	71.4	1	2	90	0.00	29.848 
18:45	80.1	80.1	83.9	76	71.8	1	3	90	0.00	29.843 
18:50	79.9	79.9	83.5	76	71.6	1	3	90	0.00	29.843 
18:55	79.8	79.8	83.3	76	71.5	0	2	90	0.00	29.847 
19:00	79.6	79.6	83.1	77	71.7	0	1	90	0.00	29.857 
19:05	79.4	79.4	82.8	78	71.9	0	1	90	0.00	29.852 
19:10	79.2	79.2	82.5	79	72.1	0	2	90	0.00	29.853 
19:15	79.0	79.0	82.1	79	71.9	1	2	90	0.00	29.855 
19:20	78.8	78.8	81.7	78	71.3	1	4	90	0.00	29.857 
19:25	78.8	78.8	81.7	78	71.3	1	3	112	0.00	29.858 
19:30	78.8	78.8	81.6	77	71.0	1	3	112	0.00	29.854 
19:35	78.8	78.8	81.6	77	71.0	1	4	90	0.00	29.853 
19:40	78.8	78.8	81.6	77	71.0	2	4	90	0.00	29.843 
19:45	78.6	78.6	81.2	76	70.4	1	4	112	0.00	29.839 
19:50	78.6	78.6	81.2	76	70.4	2	4	90	0.00	29.837 
19:55	78.5	78.5	81.1	77	70.7	2	4	90	0.00	29.831 
20:00	78.3	78.3	80.8	78	70.9	2	4	90	0.00	29.825 
20:05	77.9	77.9	80.1	80	71.2	2	4	90	0.00	29.823 
20:10	77.7	77.7	79.8	80	71.0	1	4	90	0.00	29.822 
20:15	77.4	77.4	79.2	81	71.1	2	4	68	0.00	29.821 
20:20	77.4	77.4	79.2	81	71.1	0	2	90	0.00	29.821 
20:25	77.2	77.2	78.9	82	71.3	0	2	90	0.00	29.819 
20:30	77.0	77.0	78.5	82	71.1	1	3	90	0.00	29.821 
20:35	76.8	76.8	78.2	82	70.9	1	2	90	0.00	29.820 
20:40	76.7	76.7	78.0	82	70.8	1	3	90	0.00	29.820 
20:45	76.5	76.5	77.7	82	70.6	1	3	90	0.00	29.822 
20:50	76.5	76.5	77.7	81	70.2	1	3	90	0.00	29.821 
20:55	76.5	76.5	77.7	81	70.2	1	3	90	0.00	29.817 
21:00	76.5	76.5	77.7	81	70.2	0	2	90	0.00	29.814 
21:05	76.5	76.5	77.7	81	70.2	0	1	90	0.00	29.815 
21:10	76.3	76.3	77.3	82	70.4	0	1	90	0.00	29.815 
21:15	76.1	76.1	77.0	82	70.2	0	1	90	0.00	29.820 
21:20	76.0	76.0	76.7	83	70.4	0	1	90	0.00	29.824 
21:25	75.6	75.6	76.0	84	70.4	0	1	90	0.00	29.824 
21:30	75.4	75.4	75.7	84	70.2	0	3	45	0.00	29.827 
21:35	75.4	75.4	75.5	85	70.6	0	3	45	0.00	29.832 
21:40	75.3	75.3	75.4	85	70.5	0	3	45	0.00	29.834 
21:45	75.3	75.3	75.2	86	70.8	2	6	90	0.00	29.832 
21:50	75.3	75.3	75.2	86	70.8	1	4	112	0.00	29.835 
21:55	75.3	75.3	75.2	86	70.8	2	4	112	0.00	29.830 
22:00	75.4	75.4	75.4	86	70.9	2	6	90	0.00	29.825 
22:05	75.4	75.4	75.4	86	70.9	2	6	90	0.00	29.825 
22:10	75.4	75.4	75.4	86	70.9	2	4	90	0.00	29.825 
22:15	75.4	75.4	75.4	86	70.9	3	6	90	0.00	29.809 
22:20	75.4	75.4	75.4	86	70.9	3	6	90	0.00	29.810 
22:25	75.4	75.4	75.5	85	70.6	2	5	90	0.00	29.813 
22:30	75.4	75.4	75.4	86	70.9	2	6	90	0.00	29.810 
22:35	75.6	75.6	75.8	86	71.1	3	6	90	0.00	29.806 
22:40	75.6	75.6	75.8	86	71.1	2	7	90	0.00	29.799 
22:45	75.4	75.4	75.3	87	71.2	3	5	90	0.00	29.802 
22:50	75.4	75.4	75.3	87	71.2	3	6	112	0.00	29.795 
22:55	75.3	75.3	75.0	88	71.5	4	9	90	0.00	29.791 
23:00	75.1	75.1	74.6	88	71.3	3	6	90	0.00	29.791 
23:05	74.9	74.9	74.9	89	71.4	4	9	90	0.00	29.780 
23:10	74.9	74.9	74.9	89	71.4	3	6	90	0.00	29.778 
23:15	74.7	74.7	74.7	89	71.2	4	11	90	0.01	29.777 
23:20	74.7	74.7	74.7	89	71.2	3	6	90	0.00	29.778 
23:25	74.7	74.7	74.7	90	71.6	3	7	90	0.00	29.768 
23:30	74.6	74.6	74.6	90	71.5	3	6	90	0.00	29.771 
23:35	74.6	74.6	74.6	90	71.5	4	10	90	0.00	29.769 
23:40	74.6	74.6	74.6	90	71.5	4	10	90	0.00	29.766 
23:45	74.4	74.4	74.4	90	71.3	2	6	90	0.00	29.794 
23:50	74.6	74.6	74.6	91	71.8	3	5	270	0.00	29.850 
23:55	74.2	74.2	74.2	87	70.1	2	5	292	0.03	29.856 

CoCoRaHS
IN-AL-39
A2 Web Hosting
Creative Commons License
GoDaddy
Look for:

loaded 2017-12-13 10:16:18 • last modified 2010-11-18 10:43:29
Privacy PolicyDisclaimer
• wx.awcolley.com is powered by PmWiki v.2002016 •
• all content (unless otherwise noted) © 2017 A W Colley